sensor_id;sensor_type;location;lat;lon;timestamp;P1;durP1;ratioP1;P2;durP2;ratioP2
7879;SDS011;3985;49.366;2.738;2023-05-29T00:02:21;11.00;;;11.00;;
7879;SDS011;3985;49.366;2.738;2023-05-29T00:04:52;11.25;;;11.25;;
7879;SDS011;3985;49.366;2.738;2023-05-29T00:07:19;10.75;;;8.25;;
7879;SDS011;3985;49.366;2.738;2023-05-29T00:09:48;10.75;;;10.25;;
7879;SDS011;3985;49.366;2.738;2023-05-29T00:12:15;11.00;;;9.00;;
7879;SDS011;3985;49.366;2.738;2023-05-29T00:14:43;8.00;;;8.00;;
7879;SDS011;3985;49.366;2.738;2023-05-29T00:17:11;6.00;;;6.00;;
7879;SDS011;3985;49.366;2.738;2023-05-29T00:19:40;13.75;;;11.00;;
7879;SDS011;3985;49.366;2.738;2023-05-29T00:22:07;12.75;;;11.00;;
7879;SDS011;3985;49.366;2.738;2023-05-29T00:24:35;8.00;;;8.00;;
7879;SDS011;3985;49.366;2.738;2023-05-29T00:27:07;11.00;;;8.75;;
7879;SDS011;3985;49.366;2.738;2023-05-29T00:29:34;9.25;;;8.25;;
7879;SDS011;3985;49.366;2.738;2023-05-29T00:32:03;11.25;;;9.50;;
7879;SDS011;3985;49.366;2.738;2023-05-29T00:34:30;13.75;;;12.00;;
7879;SDS011;3985;49.366;2.738;2023-05-29T00:36:58;9.50;;;9.50;;
7879;SDS011;3985;49.366;2.738;2023-05-29T00:39:26;10.25;;;10.00;;
7879;SDS011;3985;49.366;2.738;2023-05-29T00:41:53;11.25;;;8.50;;
7879;SDS011;3985;49.366;2.738;2023-05-29T00:44:23;10.75;;;8.75;;
7879;SDS011;3985;49.366;2.738;2023-05-29T00:46:52;11.50;;;11.50;;
7879;SDS011;3985;49.366;2.738;2023-05-29T00:49:26;11.00;;;9.25;;
7879;SDS011;3985;49.366;2.738;2023-05-29T00:51:53;11.25;;;11.25;;
7879;SDS011;3985;49.366;2.738;2023-05-29T00:54:26;10.25;;;10.00;;
7879;SDS011;3985;49.366;2.738;2023-05-29T00:56:54;10.00;;;8.25;;
7879;SDS011;3985;49.366;2.738;2023-05-29T00:59:25;11.25;;;11.00;;
7879;SDS011;3985;49.366;2.738;2023-05-29T01:01:58;10.00;;;9.00;;
7879;SDS011;3985;49.366;2.738;2023-05-29T01:04:27;10.25;;;10.25;;
7879;SDS011;3985;49.366;2.738;2023-05-29T01:06:54;11.75;;;11.50;;
7879;SDS011;3985;49.366;2.738;2023-05-29T01:09:22;9.25;;;9.25;;
7879;SDS011;3985;49.366;2.738;2023-05-29T01:11:50;12.25;;;9.50;;
7879;SDS011;3985;49.366;2.738;2023-05-29T01:14:25;10.75;;;10.75;;
7879;SDS011;3985;49.366;2.738;2023-05-29T01:16:59;13.00;;;11.75;;
7879;SDS011;3985;49.366;2.738;2023-05-29T01:19:36;12.75;;;11.50;;
7879;SDS011;3985;49.366;2.738;2023-05-29T01:22:23;12.75;;;9.25;;
7879;SDS011;3985;49.366;2.738;2023-05-29T01:25:00;11.25;;;10.25;;
7879;SDS011;3985;49.366;2.738;2023-05-29T01:27:39;10.25;;;9.75;;
7879;SDS011;3985;49.366;2.738;2023-05-29T01:30:08;11.25;;;9.50;;
7879;SDS011;3985;49.366;2.738;2023-05-29T01:32:38;10.50;;;10.00;;
7879;SDS011;3985;49.366;2.738;2023-05-29T01:35:07;13.00;;;13.00;;
7879;SDS011;3985;49.366;2.738;2023-05-29T01:37:35;12.00;;;10.33;;
7879;SDS011;3985;49.366;2.738;2023-05-29T01:40:06;15.50;;;12.25;;
7879;SDS011;3985;49.366;2.738;2023-05-29T01:42:34;10.00;;;10.00;;
7879;SDS011;3985;49.366;2.738;2023-05-29T01:45:03;9.25;;;9.00;;
7879;SDS011;3985;49.366;2.738;2023-05-29T01:47:31;11.00;;;8.67;;
7879;SDS011;3985;49.366;2.738;2023-05-29T01:49:59;16.67;;;11.33;;
7879;SDS011;3985;49.366;2.738;2023-05-29T01:52:28;15.50;;;10.75;;
7879;SDS011;3985;49.366;2.738;2023-05-29T01:54:55;9.33;;;8.67;;
7879;SDS011;3985;49.366;2.738;2023-05-29T01:57:23;9.33;;;9.33;;
7879;SDS011;3985;49.366;2.738;2023-05-29T01:59:51;12.00;;;10.67;;
7879;SDS011;3985;49.366;2.738;2023-05-29T02:02:21;12.67;;;10.33;;
7879;SDS011;3985;49.366;2.738;2023-05-29T02:04:48;9.00;;;9.00;;
7879;SDS011;3985;49.366;2.738;2023-05-29T02:07:17;12.67;;;12.67;;
7879;SDS011;3985;49.366;2.738;2023-05-29T02:09:44;12.00;;;12.00;;
7879;SDS011;3985;49.366;2.738;2023-05-29T02:12:12;11.67;;;11.00;;
7879;SDS011;3985;49.366;2.738;2023-05-29T02:14:39;9.67;;;9.67;;
7879;SDS011;3985;49.366;2.738;2023-05-29T02:17:06;14.33;;;12.67;;
7879;SDS011;3985;49.366;2.738;2023-05-29T02:19:35;13.00;;;11.67;;
7879;SDS011;3985;49.366;2.738;2023-05-29T02:22:03;10.00;;;10.00;;
7879;SDS011;3985;49.366;2.738;2023-05-29T02:24:31;13.00;;;13.00;;
7879;SDS011;3985;49.366;2.738;2023-05-29T02:26:58;12.00;;;12.00;;
7879;SDS011;3985;49.366;2.738;2023-05-29T02:29:26;11.67;;;11.67;;
7879;SDS011;3985;49.366;2.738;2023-05-29T02:31:56;13.67;;;13.67;;
7879;SDS011;3985;49.366;2.738;2023-05-29T02:34:26;16.00;;;12.00;;
7879;SDS011;3985;49.366;2.738;2023-05-29T02:36:57;11.00;;;11.00;;
7879;SDS011;3985;49.366;2.738;2023-05-29T02:39:27;13.00;;;12.67;;
7879;SDS011;3985;49.366;2.738;2023-05-29T02:41:55;14.00;;;9.67;;
7879;SDS011;3985;49.366;2.738;2023-05-29T02:44:22;10.00;;;10.00;;
7879;SDS011;3985;49.366;2.738;2023-05-29T02:46:50;12.67;;;10.00;;
7879;SDS011;3985;49.366;2.738;2023-05-29T02:49:17;13.00;;;11.00;;
7879;SDS011;3985;49.366;2.738;2023-05-29T02:51:48;13.00;;;11.67;;
7879;SDS011;3985;49.366;2.738;2023-05-29T02:54:17;10.33;;;10.33;;
7879;SDS011;3985;49.366;2.738;2023-05-29T02:56:44;12.00;;;10.67;;
7879;SDS011;3985;49.366;2.738;2023-05-29T02:59:11;11.00;;;11.00;;
7879;SDS011;3985;49.366;2.738;2023-05-29T03:01:38;11.67;;;10.67;;
7879;SDS011;3985;49.366;2.738;2023-05-29T03:04:06;12.50;;;12.50;;
7879;SDS011;3985;49.366;2.738;2023-05-29T03:06:36;10.75;;;9.75;;
7879;SDS011;3985;49.366;2.738;2023-05-29T03:09:03;18.00;;;15.25;;
7879;SDS011;3985;49.366;2.738;2023-05-29T03:11:32;13.50;;;12.00;;
7879;SDS011;3985;49.366;2.738;2023-05-29T03:14:01;13.00;;;11.25;;
7879;SDS011;3985;49.366;2.738;2023-05-29T03:16:28;14.00;;;12.00;;
7879;SDS011;3985;49.366;2.738;2023-05-29T03:18:56;16.50;;;13.00;;
7879;SDS011;3985;49.366;2.738;2023-05-29T03:21:26;14.00;;;12.25;;
7879;SDS011;3985;49.366;2.738;2023-05-29T03:23:54;14.00;;;14.00;;
7879;SDS011;3985;49.366;2.738;2023-05-29T03:26:23;16.50;;;14.50;;
7879;SDS011;3985;49.366;2.738;2023-05-29T03:28:53;22.25;;;18.75;;
7879;SDS011;3985;49.366;2.738;2023-05-29T03:31:20;19.25;;;16.25;;
7879;SDS011;3985;49.366;2.738;2023-05-29T03:33:50;20.25;;;20.25;;
7879;SDS011;3985;49.366;2.738;2023-05-29T03:36:17;16.50;;;13.75;;
7879;SDS011;3985;49.366;2.738;2023-05-29T03:38:49;17.50;;;16.25;;
7879;SDS011;3985;49.366;2.738;2023-05-29T03:41:17;22.00;;;19.00;;
7879;SDS011;3985;49.366;2.738;2023-05-29T03:43:47;20.75;;;19.00;;
7879;SDS011;3985;49.366;2.738;2023-05-29T03:46:15;21.75;;;19.25;;
7879;SDS011;3985;49.366;2.738;2023-05-29T03:48:43;19.75;;;18.00;;
7879;SDS011;3985;49.366;2.738;2023-05-29T03:51:10;20.50;;;20.25;;
7879;SDS011;3985;49.366;2.738;2023-05-29T03:53:38;22.50;;;20.50;;
7879;SDS011;3985;49.366;2.738;2023-05-29T03:56:05;20.50;;;20.50;;
7879;SDS011;3985;49.366;2.738;2023-05-29T03:58:32;19.25;;;18.25;;
7879;SDS011;3985;49.366;2.738;2023-05-29T04:01:01;17.50;;;15.75;;
7879;SDS011;3985;49.366;2.738;2023-05-29T04:03:30;19.75;;;18.25;;
7879;SDS011;3985;49.366;2.738;2023-05-29T04:06:00;23.25;;;20.25;;
7879;SDS011;3985;49.366;2.738;2023-05-29T04:08:27;21.50;;;19.25;;
7879;SDS011;3985;49.366;2.738;2023-05-29T04:10:55;21.50;;;19.25;;
7879;SDS011;3985;49.366;2.738;2023-05-29T04:13:22;20.50;;;20.50;;
7879;SDS011;3985;49.366;2.738;2023-05-29T04:15:50;21.75;;;21.75;;
7879;SDS011;3985;49.366;2.738;2023-05-29T04:18:18;20.75;;;20.75;;
7879;SDS011;3985;49.366;2.738;2023-05-29T04:20:47;22.50;;;22.00;;
7879;SDS011;3985;49.366;2.738;2023-05-29T04:23:14;24.25;;;24.25;;
7879;SDS011;3985;49.366;2.738;2023-05-29T04:25:42;23.50;;;23.50;;
7879;SDS011;3985;49.366;2.738;2023-05-29T04:28:11;29.75;;;28.00;;
7879;SDS011;3985;49.366;2.738;2023-05-29T04:30:38;27.00;;;25.00;;
7879;SDS011;3985;49.366;2.738;2023-05-29T04:33:06;28.25;;;25.25;;
7879;SDS011;3985;49.366;2.738;2023-05-29T04:35:37;25.25;;;25.25;;
7879;SDS011;3985;49.366;2.738;2023-05-29T04:38:09;20.25;;;20.25;;
7879;SDS011;3985;49.366;2.738;2023-05-29T04:40:37;26.50;;;21.75;;
7879;SDS011;3985;49.366;2.738;2023-05-29T04:43:07;26.75;;;23.25;;
7879;SDS011;3985;49.366;2.738;2023-05-29T04:45:34;22.00;;;22.00;;
7879;SDS011;3985;49.366;2.738;2023-05-29T04:48:02;24.25;;;22.25;;
7879;SDS011;3985;49.366;2.738;2023-05-29T04:50:31;24.75;;;24.00;;
7879;SDS011;3985;49.366;2.738;2023-05-29T04:52:59;17.25;;;17.25;;
7879;SDS011;3985;49.366;2.738;2023-05-29T04:55:28;25.50;;;25.50;;
7879;SDS011;3985;49.366;2.738;2023-05-29T04:57:55;20.25;;;19.00;;
7879;SDS011;3985;49.366;2.738;2023-05-29T05:00:24;24.25;;;21.00;;
7879;SDS011;3985;49.366;2.738;2023-05-29T05:02:52;21.75;;;21.75;;
7879;SDS011;3985;49.366;2.738;2023-05-29T05:05:19;25.25;;;25.25;;
7879;SDS011;3985;49.366;2.738;2023-05-29T05:07:49;26.75;;;25.25;;
7879;SDS011;3985;49.366;2.738;2023-05-29T05:10:17;26.75;;;23.75;;
7879;SDS011;3985;49.366;2.738;2023-05-29T05:12:45;26.75;;;24.25;;
7879;SDS011;3985;49.366;2.738;2023-05-29T05:15:13;21.00;;;19.25;;
7879;SDS011;3985;49.366;2.738;2023-05-29T05:17:40;25.25;;;24.75;;
7879;SDS011;3985;49.366;2.738;2023-05-29T05:20:08;25.75;;;24.00;;
7879;SDS011;3985;49.366;2.738;2023-05-29T05:22:36;26.25;;;24.50;;
7879;SDS011;3985;49.366;2.738;2023-05-29T05:25:04;15.75;;;15.25;;
7879;SDS011;3985;49.366;2.738;2023-05-29T05:27:32;20.75;;;16.75;;
7879;SDS011;3985;49.366;2.738;2023-05-29T05:30:03;19.75;;;17.25;;
7879;SDS011;3985;49.366;2.738;2023-05-29T05:32:32;22.50;;;21.75;;
7879;SDS011;3985;49.366;2.738;2023-05-29T05:34:59;25.25;;;22.50;;
7879;SDS011;3985;49.366;2.738;2023-05-29T05:37:28;20.00;;;18.75;;
7879;SDS011;3985;49.366;2.738;2023-05-29T05:39:55;21.00;;;17.50;;
7879;SDS011;3985;49.366;2.738;2023-05-29T05:42:25;20.25;;;20.25;;
7879;SDS011;3985;49.366;2.738;2023-05-29T05:44:52;29.25;;;22.25;;
7879;SDS011;3985;49.366;2.738;2023-05-29T05:47:21;19.25;;;19.25;;
7879;SDS011;3985;49.366;2.738;2023-05-29T05:49:48;22.25;;;18.50;;
7879;SDS011;3985;49.366;2.738;2023-05-29T05:52:16;27.00;;;25.50;;
7879;SDS011;3985;49.366;2.738;2023-05-29T05:54:44;48.25;;;41.25;;
7879;SDS011;3985;49.366;2.738;2023-05-29T05:57:11;19.75;;;19.00;;
7879;SDS011;3985;49.366;2.738;2023-05-29T05:59:38;20.00;;;17.00;;
7879;SDS011;3985;49.366;2.738;2023-05-29T06:02:05;23.50;;;22.50;;
7879;SDS011;3985;49.366;2.738;2023-05-29T06:04:34;19.00;;;19.00;;
7879;SDS011;3985;49.366;2.738;2023-05-29T06:07:01;18.25;;;18.25;;
7879;SDS011;3985;49.366;2.738;2023-05-29T06:09:29;17.50;;;17.25;;
7879;SDS011;3985;49.366;2.738;2023-05-29T06:11:56;22.25;;;19.75;;
7879;SDS011;3985;49.366;2.738;2023-05-29T06:14:24;17.75;;;17.75;;
7879;SDS011;3985;49.366;2.738;2023-05-29T06:16:51;21.50;;;19.25;;
7879;SDS011;3985;49.366;2.738;2023-05-29T06:19:21;22.75;;;18.50;;
7879;SDS011;3985;49.366;2.738;2023-05-29T06:21:50;20.75;;;20.75;;
7879;SDS011;3985;49.366;2.738;2023-05-29T06:24:17;21.25;;;19.75;;
7879;SDS011;3985;49.366;2.738;2023-05-29T06:26:44;50.25;;;41.00;;
7879;SDS011;3985;49.366;2.738;2023-05-29T06:29:12;21.50;;;20.00;;
7879;SDS011;3985;49.366;2.738;2023-05-29T06:31:40;22.00;;;22.00;;
7879;SDS011;3985;49.366;2.738;2023-05-29T06:34:07;17.33;;;17.33;;
7879;SDS011;3985;49.366;2.738;2023-05-29T06:36:34;21.75;;;20.75;;
7879;SDS011;3985;49.366;2.738;2023-05-29T06:39:03;20.25;;;18.75;;
7879;SDS011;3985;49.366;2.738;2023-05-29T06:41:33;19.25;;;15.75;;
7879;SDS011;3985;49.366;2.738;2023-05-29T06:44:01;22.50;;;22.50;;
7879;SDS011;3985;49.366;2.738;2023-05-29T06:46:28;21.33;;;21.33;;
7879;SDS011;3985;49.366;2.738;2023-05-29T06:48:57;23.00;;;21.33;;
7879;SDS011;3985;49.366;2.738;2023-05-29T06:51:24;25.67;;;24.33;;
7879;SDS011;3985;49.366;2.738;2023-05-29T06:53:52;21.50;;;20.50;;
7879;SDS011;3985;49.366;2.738;2023-05-29T06:56:21;21.00;;;20.67;;
7879;SDS011;3985;49.366;2.738;2023-05-29T06:58:48;26.67;;;24.33;;
7879;SDS011;3985;49.366;2.738;2023-05-29T07:01:16;30.33;;;26.33;;
7879;SDS011;3985;49.366;2.738;2023-05-29T07:03:43;24.00;;;23.33;;
7879;SDS011;3985;49.366;2.738;2023-05-29T07:06:10;26.00;;;24.00;;
7879;SDS011;3985;49.366;2.738;2023-05-29T07:08:37;23.50;;;23.50;;
7879;SDS011;3985;49.366;2.738;2023-05-29T07:11:05;20.33;;;20.33;;
7879;SDS011;3985;49.366;2.738;2023-05-29T07:13:33;23.00;;;23.00;;
7879;SDS011;3985;49.366;2.738;2023-05-29T07:16:01;22.67;;;21.33;;
7879;SDS011;3985;49.366;2.738;2023-05-29T07:18:28;23.33;;;23.00;;
7879;SDS011;3985;49.366;2.738;2023-05-29T07:20:56;22.67;;;20.67;;
7879;SDS011;3985;49.366;2.738;2023-05-29T07:23:26;21.33;;;21.00;;
7879;SDS011;3985;49.366;2.738;2023-05-29T07:25:53;28.33;;;26.33;;
7879;SDS011;3985;49.366;2.738;2023-05-29T07:28:20;26.00;;;24.33;;
7879;SDS011;3985;49.366;2.738;2023-05-29T07:31:08;24.33;;;24.33;;
7879;SDS011;3985;49.366;2.738;2023-05-29T07:33:35;26.33;;;22.33;;
7879;SDS011;3985;49.366;2.738;2023-05-29T07:36:02;33.00;;;27.67;;
7879;SDS011;3985;49.366;2.738;2023-05-29T07:38:30;28.00;;;27.33;;
7879;SDS011;3985;49.366;2.738;2023-05-29T07:40:58;23.33;;;23.00;;
7879;SDS011;3985;49.366;2.738;2023-05-29T07:43:25;30.67;;;29.00;;
7879;SDS011;3985;49.366;2.738;2023-05-29T07:45:52;35.33;;;32.00;;
7879;SDS011;3985;49.366;2.738;2023-05-29T07:48:21;28.33;;;28.00;;
7879;SDS011;3985;49.366;2.738;2023-05-29T07:50:48;29.67;;;29.67;;
7879;SDS011;3985;49.366;2.738;2023-05-29T07:53:17;32.33;;;31.00;;
7879;SDS011;3985;49.366;2.738;2023-05-29T07:55:44;28.33;;;28.33;;
7879;SDS011;3985;49.366;2.738;2023-05-29T07:58:11;32.67;;;29.67;;
7879;SDS011;3985;49.366;2.738;2023-05-29T08:00:41;31.00;;;27.50;;
7879;SDS011;3985;49.366;2.738;2023-05-29T08:03:09;28.25;;;26.50;;
7879;SDS011;3985;49.366;2.738;2023-05-29T08:05:38;30.25;;;28.75;;
7879;SDS011;3985;49.366;2.738;2023-05-29T08:08:05;32.25;;;29.00;;
7879;SDS011;3985;49.366;2.738;2023-05-29T08:10:33;31.25;;;28.25;;
7879;SDS011;3985;49.366;2.738;2023-05-29T08:13:00;28.75;;;28.50;;
7879;SDS011;3985;49.366;2.738;2023-05-29T08:15:27;28.00;;;26.25;;
7879;SDS011;3985;49.366;2.738;2023-05-29T08:17:56;29.50;;;28.50;;
7879;SDS011;3985;49.366;2.738;2023-05-29T08:20:26;1.75;;;1.00;;
7879;SDS011;3985;49.366;2.738;2023-05-29T08:22:55;28.00;;;26.75;;
7879;SDS011;3985;49.366;2.738;2023-05-29T08:25:22;31.25;;;28.75;;
7879;SDS011;3985;49.366;2.738;2023-05-29T08:27:50;36.75;;;31.75;;
7879;SDS011;3985;49.366;2.738;2023-05-29T08:30:17;28.50;;;28.50;;
7879;SDS011;3985;49.366;2.738;2023-05-29T08:32:45;27.50;;;27.50;;
7879;SDS011;3985;49.366;2.738;2023-05-29T08:35:23;33.00;;;31.75;;
7879;SDS011;3985;49.366;2.738;2023-05-29T08:37:51;27.75;;;27.75;;
7879;SDS011;3985;49.366;2.738;2023-05-29T08:40:20;29.50;;;29.50;;
7879;SDS011;3985;49.366;2.738;2023-05-29T08:42:51;30.25;;;29.25;;
7879;SDS011;3985;49.366;2.738;2023-05-29T08:45:22;31.00;;;29.50;;
7879;SDS011;3985;49.366;2.738;2023-05-29T08:47:51;22.75;;;22.50;;
7879;SDS011;3985;49.366;2.738;2023-05-29T08:50:20;30.75;;;28.25;;
7879;SDS011;3985;49.366;2.738;2023-05-29T08:52:48;25.00;;;25.00;;
7879;SDS011;3985;49.366;2.738;2023-05-29T08:55:16;27.00;;;27.00;;
7879;SDS011;3985;49.366;2.738;2023-05-29T08:57:45;25.00;;;24.00;;
7879;SDS011;3985;49.366;2.738;2023-05-29T09:00:19;26.75;;;26.00;;
7879;SDS011;3985;49.366;2.738;2023-05-29T09:02:47;33.00;;;29.25;;
7879;SDS011;3985;49.366;2.738;2023-05-29T09:05:14;25.75;;;24.00;;
7879;SDS011;3985;49.366;2.738;2023-05-29T09:07:45;28.50;;;26.00;;
7879;SDS011;3985;49.366;2.738;2023-05-29T09:10:14;26.75;;;26.75;;
7879;SDS011;3985;49.366;2.738;2023-05-29T09:12:46;27.25;;;24.50;;
7879;SDS011;3985;49.366;2.738;2023-05-29T09:15:18;27.75;;;26.75;;
7879;SDS011;3985;49.366;2.738;2023-05-29T09:17:50;26.75;;;24.75;;
7879;SDS011;3985;49.366;2.738;2023-05-29T09:20:18;30.25;;;27.25;;
7879;SDS011;3985;49.366;2.738;2023-05-29T09:22:54;26.50;;;25.75;;
7879;SDS011;3985;49.366;2.738;2023-05-29T09:25:26;24.75;;;23.50;;
7879;SDS011;3985;49.366;2.738;2023-05-29T09:27:57;28.75;;;26.25;;
7879;SDS011;3985;49.366;2.738;2023-05-29T09:30:34;26.50;;;25.50;;
7879;SDS011;3985;49.366;2.738;2023-05-29T09:33:03;25.75;;;24.00;;
7879;SDS011;3985;49.366;2.738;2023-05-29T09:35:32;25.00;;;23.50;;
7879;SDS011;3985;49.366;2.738;2023-05-29T09:38:04;27.75;;;23.25;;
7879;SDS011;3985;49.366;2.738;2023-05-29T09:40:32;24.25;;;23.75;;
7879;SDS011;3985;49.366;2.738;2023-05-29T09:43:03;23.25;;;23.25;;
7879;SDS011;3985;49.366;2.738;2023-05-29T09:45:32;22.25;;;22.25;;
7879;SDS011;3985;49.366;2.738;2023-05-29T09:48:03;21.25;;;18.25;;
7879;SDS011;3985;49.366;2.738;2023-05-29T09:50:31;25.75;;;25.75;;
7879;SDS011;3985;49.366;2.738;2023-05-29T09:52:59;27.50;;;23.00;;
7879;SDS011;3985;49.366;2.738;2023-05-29T09:55:27;20.75;;;20.75;;
7879;SDS011;3985;49.366;2.738;2023-05-29T09:57:57;17.00;;;17.00;;
7879;SDS011;3985;49.366;2.738;2023-05-29T10:00:26;16.80;;;16.80;;
7879;SDS011;3985;49.366;2.738;2023-05-29T10:02:53;19.20;;;18.00;;
7879;SDS011;3985;49.366;2.738;2023-05-29T10:05:20;18.40;;;18.40;;
7879;SDS011;3985;49.366;2.738;2023-05-29T10:07:48;14.80;;;13.00;;
7879;SDS011;3985;49.366;2.738;2023-05-29T10:10:18;16.80;;;16.80;;
7879;SDS011;3985;49.366;2.738;2023-05-29T10:12:47;17.20;;;17.20;;
7879;SDS011;3985;49.366;2.738;2023-05-29T10:15:15;30.50;;;26.75;;
7879;SDS011;3985;49.366;2.738;2023-05-29T10:17:51;15.00;;;15.00;;
7879;SDS011;3985;49.366;2.738;2023-05-29T10:20:22;15.80;;;13.60;;
7879;SDS011;3985;49.366;2.738;2023-05-29T10:22:50;20.40;;;19.40;;
7879;SDS011;3985;49.366;2.738;2023-05-29T10:25:21;15.80;;;15.00;;
7879;SDS011;3985;49.366;2.738;2023-05-29T10:27:49;13.80;;;13.80;;
7879;SDS011;3985;49.366;2.738;2023-05-29T10:30:22;12.00;;;12.00;;
7879;SDS011;3985;49.366;2.738;2023-05-29T10:33:07;15.00;;;13.80;;
7879;SDS011;3985;49.366;2.738;2023-05-29T10:36:01;13.80;;;12.00;;
7879;SDS011;3985;49.366;2.738;2023-05-29T10:38:31;13.20;;;13.20;;
7879;SDS011;3985;49.366;2.738;2023-05-29T10:41:29;10.00;;;10.00;;
7879;SDS011;3985;49.366;2.738;2023-05-29T10:43:59;8.20;;;8.20;;
7879;SDS011;3985;49.366;2.738;2023-05-29T10:49:31;11.60;;;9.80;;
7879;SDS011;3985;49.366;2.738;2023-05-29T10:51:59;7.60;;;6.80;;
7879;SDS011;3985;49.366;2.738;2023-05-29T10:54:27;8.00;;;8.00;;
7879;SDS011;3985;49.366;2.738;2023-05-29T10:56:55;7.80;;;7.80;;
7879;SDS011;3985;49.366;2.738;2023-05-29T10:59:23;7.80;;;6.40;;
7879;SDS011;3985;49.366;2.738;2023-05-29T11:01:52;6.20;;;4.60;;
7879;SDS011;3985;49.366;2.738;2023-05-29T11:04:26;7.60;;;6.00;;
7879;SDS011;3985;49.366;2.738;2023-05-29T11:06:57;7.80;;;7.80;;
7879;SDS011;3985;49.366;2.738;2023-05-29T11:09:28;6.40;;;5.00;;
7879;SDS011;3985;49.366;2.738;2023-05-29T11:12:15;6.00;;;6.00;;
7879;SDS011;3985;49.366;2.738;2023-05-29T11:15:02;5.20;;;5.20;;
7879;SDS011;3985;49.366;2.738;2023-05-29T11:17:31;3.40;;;3.40;;
7879;SDS011;3985;49.366;2.738;2023-05-29T11:20:03;1.00;;;1.00;;
7879;SDS011;3985;49.366;2.738;2023-05-29T11:25:26;6.00;;;5.00;;
7879;SDS011;3985;49.366;2.738;2023-05-29T11:27:54;3.20;;;3.20;;
7879;SDS011;3985;49.366;2.738;2023-05-29T11:30:24;5.60;;;5.00;;
7879;SDS011;3985;49.366;2.738;2023-05-29T11:32:52;4.20;;;4.20;;
7879;SDS011;3985;49.366;2.738;2023-05-29T11:35:22;5.40;;;5.40;;
7879;SDS011;3985;49.366;2.738;2023-05-29T11:37:50;5.80;;;4.20;;
7879;SDS011;3985;49.366;2.738;2023-05-29T11:40:23;5.00;;;5.00;;
7879;SDS011;3985;49.366;2.738;2023-05-29T11:42:51;4.20;;;4.20;;
7879;SDS011;3985;49.366;2.738;2023-05-29T11:45:19;6.40;;;4.40;;
7879;SDS011;3985;49.366;2.738;2023-05-29T11:47:54;5.80;;;4.00;;
7879;SDS011;3985;49.366;2.738;2023-05-29T11:50:24;4.20;;;2.40;;
7879;SDS011;3985;49.366;2.738;2023-05-29T11:52:53;3.40;;;3.40;;
7879;SDS011;3985;49.366;2.738;2023-05-29T11:55:21;7.20;;;4.40;;
7879;SDS011;3985;49.366;2.738;2023-05-29T11:57:52;6.00;;;3.20;;
7879;SDS011;3985;49.366;2.738;2023-05-29T12:00:23;2.00;;;2.00;;
7879;SDS011;3985;49.366;2.738;2023-05-29T12:02:51;4.20;;;4.20;;
7879;SDS011;3985;49.366;2.738;2023-05-29T12:05:18;4.40;;;4.00;;
7879;SDS011;3985;49.366;2.738;2023-05-29T12:07:46;6.20;;;3.00;;
7879;SDS011;3985;49.366;2.738;2023-05-29T12:10:15;4.40;;;3.00;;
7879;SDS011;3985;49.366;2.738;2023-05-29T12:12:52;3.40;;;3.40;;
7879;SDS011;3985;49.366;2.738;2023-05-29T12:15:20;5.80;;;4.20;;
7879;SDS011;3985;49.366;2.738;2023-05-29T12:17:48;5.60;;;3.00;;
7879;SDS011;3985;49.366;2.738;2023-05-29T12:20:16;5.00;;;4.00;;
7879;SDS011;3985;49.366;2.738;2023-05-29T12:22:45;4.40;;;4.40;;
7879;SDS011;3985;49.366;2.738;2023-05-29T12:25:13;5.00;;;4.20;;
7879;SDS011;3985;49.366;2.738;2023-05-29T12:27:42;4.80;;;3.80;;
7879;SDS011;3985;49.366;2.738;2023-05-29T12:30:13;3.60;;;3.60;;
7879;SDS011;3985;49.366;2.738;2023-05-29T12:32:43;4.00;;;4.00;;
7879;SDS011;3985;49.366;2.738;2023-05-29T12:35:12;4.20;;;2.80;;
7879;SDS011;3985;49.366;2.738;2023-05-29T12:37:47;2.00;;;2.00;;
7879;SDS011;3985;49.366;2.738;2023-05-29T12:40:15;2.80;;;2.80;;
7879;SDS011;3985;49.366;2.738;2023-05-29T12:42:43;2.80;;;2.80;;
7879;SDS011;3985;49.366;2.738;2023-05-29T12:45:11;4.00;;;3.60;;
7879;SDS011;3985;49.366;2.738;2023-05-29T12:47:46;2.80;;;2.80;;
7879;SDS011;3985;49.366;2.738;2023-05-29T12:50:23;2.00;;;2.00;;
7879;SDS011;3985;49.366;2.738;2023-05-29T12:52:58;5.00;;;3.60;;
7879;SDS011;3985;49.366;2.738;2023-05-29T12:55:26;3.40;;;3.40;;
7879;SDS011;3985;49.366;2.738;2023-05-29T12:57:54;5.60;;;5.20;;
7879;SDS011;3985;49.366;2.738;2023-05-29T13:00:23;6.60;;;4.00;;
7879;SDS011;3985;49.366;2.738;2023-05-29T13:02:54;4.40;;;4.40;;
7879;SDS011;3985;49.366;2.738;2023-05-29T13:05:21;4.40;;;4.40;;
7879;SDS011;3985;49.366;2.738;2023-05-29T13:07:48;3.80;;;3.00;;
7879;SDS011;3985;49.366;2.738;2023-05-29T13:10:16;7.00;;;5.20;;
7879;SDS011;3985;49.366;2.738;2023-05-29T13:12:44;6.00;;;6.00;;
7879;SDS011;3985;49.366;2.738;2023-05-29T13:15:13;5.20;;;3.60;;
7879;SDS011;3985;49.366;2.738;2023-05-29T13:17:42;5.60;;;3.20;;
7879;SDS011;3985;49.366;2.738;2023-05-29T13:20:10;5.60;;;5.40;;
7879;SDS011;3985;49.366;2.738;2023-05-29T13:22:38;7.00;;;5.00;;
7879;SDS011;3985;49.366;2.738;2023-05-29T13:25:06;2.40;;;2.00;;
7879;SDS011;3985;49.366;2.738;2023-05-29T13:27:35;2.60;;;2.60;;
7879;SDS011;3985;49.366;2.738;2023-05-29T13:30:03;4.00;;;4.00;;
7879;SDS011;3985;49.366;2.738;2023-05-29T13:32:32;4.40;;;3.60;;
7879;SDS011;3985;49.366;2.738;2023-05-29T13:35:02;4.00;;;4.00;;
7879;SDS011;3985;49.366;2.738;2023-05-29T13:37:30;5.00;;;3.40;;
7879;SDS011;3985;49.366;2.738;2023-05-29T13:39:58;3.60;;;3.00;;
7879;SDS011;3985;49.366;2.738;2023-05-29T13:42:25;4.40;;;4.00;;
7879;SDS011;3985;49.366;2.738;2023-05-29T13:44:54;4.00;;;4.00;;
7879;SDS011;3985;49.366;2.738;2023-05-29T13:47:21;3.00;;;3.00;;
7879;SDS011;3985;49.366;2.738;2023-05-29T13:49:51;2.00;;;2.00;;
7879;SDS011;3985;49.366;2.738;2023-05-29T13:52:20;2.80;;;2.80;;
7879;SDS011;3985;49.366;2.738;2023-05-29T13:54:47;2.20;;;2.20;;
7879;SDS011;3985;49.366;2.738;2023-05-29T13:57:15;3.00;;;3.00;;
7879;SDS011;3985;49.366;2.738;2023-05-29T13:59:43;4.00;;;4.00;;
7879;SDS011;3985;49.366;2.738;2023-05-29T14:02:11;4.00;;;4.00;;
7879;SDS011;3985;49.366;2.738;2023-05-29T14:04:39;4.00;;;4.00;;
7879;SDS011;3985;49.366;2.738;2023-05-29T14:07:07;3.00;;;3.00;;
7879;SDS011;3985;49.366;2.738;2023-05-29T14:09:36;7.00;;;3.80;;
7879;SDS011;3985;49.366;2.738;2023-05-29T14:12:04;3.60;;;3.20;;
7879;SDS011;3985;49.366;2.738;2023-05-29T14:14:32;3.00;;;3.00;;
7879;SDS011;3985;49.366;2.738;2023-05-29T14:17:02;3.40;;;3.40;;
7879;SDS011;3985;49.366;2.738;2023-05-29T14:19:30;4.80;;;3.40;;
7879;SDS011;3985;49.366;2.738;2023-05-29T14:21:57;3.60;;;3.20;;
7879;SDS011;3985;49.366;2.738;2023-05-29T14:24:25;5.80;;;4.60;;
7879;SDS011;3985;49.366;2.738;2023-05-29T14:26:54;4.40;;;4.40;;
7879;SDS011;3985;49.366;2.738;2023-05-29T14:29:24;5.00;;;3.60;;
7879;SDS011;3985;49.366;2.738;2023-05-29T14:31:54;4.00;;;3.60;;
7879;SDS011;3985;49.366;2.738;2023-05-29T14:34:21;7.20;;;2.20;;
7879;SDS011;3985;49.366;2.738;2023-05-29T14:36:49;2.40;;;2.40;;
7879;SDS011;3985;49.366;2.738;2023-05-29T14:39:16;4.20;;;3.00;;
7879;SDS011;3985;49.366;2.738;2023-05-29T14:41:43;6.00;;;4.80;;
7879;SDS011;3985;49.366;2.738;2023-05-29T14:44:13;3.40;;;3.40;;
7879;SDS011;3985;49.366;2.738;2023-05-29T14:46:42;5.00;;;5.00;;
7879;SDS011;3985;49.366;2.738;2023-05-29T14:49:10;5.00;;;4.00;;
7879;SDS011;3985;49.366;2.738;2023-05-29T14:51:37;4.20;;;2.80;;
7879;SDS011;3985;49.366;2.738;2023-05-29T14:54:04;5.60;;;4.40;;
7879;SDS011;3985;49.366;2.738;2023-05-29T14:56:31;4.60;;;3.00;;
7879;SDS011;3985;49.366;2.738;2023-05-29T14:58:59;5.20;;;4.00;;
7879;SDS011;3985;49.366;2.738;2023-05-29T15:01:27;4.60;;;3.00;;
7879;SDS011;3985;49.366;2.738;2023-05-29T15:03:55;4.00;;;2.80;;
7879;SDS011;3985;49.366;2.738;2023-05-29T15:06:22;5.80;;;4.00;;
7879;SDS011;3985;49.366;2.738;2023-05-29T15:08:49;3.60;;;2.40;;
7879;SDS011;3985;49.366;2.738;2023-05-29T15:11:17;5.80;;;4.40;;
7879;SDS011;3985;49.366;2.738;2023-05-29T15:13:44;7.80;;;3.20;;
7879;SDS011;3985;49.366;2.738;2023-05-29T15:16:12;5.20;;;3.40;;